sensor_id;sensor_type;location;lat;lon;timestamp;P1;durP1;ratioP1;P2;durP2;ratioP2
6095;SDS011;25081;42.698;23.298;2023-03-14T00:01:12;56.28;;;31.10;;
6095;SDS011;25081;42.698;23.298;2023-03-14T00:03:22;55.60;;;32.23;;
6095;SDS011;25081;42.698;23.298;2023-03-14T00:05:33;22.10;;;14.85;;
6095;SDS011;25081;42.698;23.298;2023-03-14T00:07:43;20.00;;;11.30;;
6095;SDS011;25081;42.698;23.298;2023-03-14T00:09:54;21.00;;;12.45;;
6095;SDS011;25081;42.698;23.298;2023-03-14T00:12:05;28.23;;;17.12;;
6095;SDS011;25081;42.698;23.298;2023-03-14T00:14:16;17.42;;;9.30;;
6095;SDS011;25081;42.698;23.298;2023-03-14T00:16:26;13.58;;;9.95;;
6095;SDS011;25081;42.698;23.298;2023-03-14T00:18:37;14.78;;;9.58;;
6095;SDS011;25081;42.698;23.298;2023-03-14T00:20:47;13.40;;;8.35;;
6095;SDS011;25081;42.698;23.298;2023-03-14T00:22:58;8.40;;;5.20;;
6095;SDS011;25081;42.698;23.298;2023-03-14T00:25:09;11.35;;;6.42;;
6095;SDS011;25081;42.698;23.298;2023-03-14T00:27:19;11.25;;;6.85;;
6095;SDS011;25081;42.698;23.298;2023-03-14T00:29:30;10.43;;;6.65;;
6095;SDS011;25081;42.698;23.298;2023-03-14T00:31:40;11.68;;;7.92;;
6095;SDS011;25081;42.698;23.298;2023-03-14T00:33:52;12.00;;;7.00;;
6095;SDS011;25081;42.698;23.298;2023-03-14T00:36:03;8.50;;;5.20;;
6095;SDS011;25081;42.698;23.298;2023-03-14T00:38:14;10.85;;;6.72;;
6095;SDS011;25081;42.698;23.298;2023-03-14T00:40:25;11.63;;;6.80;;
6095;SDS011;25081;42.698;23.298;2023-03-14T00:42:35;10.25;;;6.20;;
6095;SDS011;25081;42.698;23.298;2023-03-14T00:44:46;11.38;;;6.95;;
6095;SDS011;25081;42.698;23.298;2023-03-14T00:46:56;8.35;;;6.35;;
6095;SDS011;25081;42.698;23.298;2023-03-14T00:49:07;11.88;;;7.20;;
6095;SDS011;25081;42.698;23.298;2023-03-14T00:51:17;10.30;;;6.72;;
6095;SDS011;25081;42.698;23.298;2023-03-14T00:53:27;9.33;;;6.60;;
6095;SDS011;25081;42.698;23.298;2023-03-14T00:55:38;11.43;;;6.20;;
6095;SDS011;25081;42.698;23.298;2023-03-14T00:57:48;8.83;;;5.92;;
6095;SDS011;25081;42.698;23.298;2023-03-14T00:59:59;10.80;;;6.47;;
6095;SDS011;25081;42.698;23.298;2023-03-14T01:02:10;10.70;;;6.70;;
6095;SDS011;25081;42.698;23.298;2023-03-14T01:04:20;12.10;;;6.37;;
6095;SDS011;25081;42.698;23.298;2023-03-14T01:06:31;8.98;;;6.05;;
6095;SDS011;25081;42.698;23.298;2023-03-14T01:08:41;10.18;;;7.00;;
6095;SDS011;25081;42.698;23.298;2023-03-14T01:10:52;12.43;;;7.78;;
6095;SDS011;25081;42.698;23.298;2023-03-14T01:13:02;12.63;;;7.87;;
6095;SDS011;25081;42.698;23.298;2023-03-14T01:15:13;19.10;;;10.25;;
6095;SDS011;25081;42.698;23.298;2023-03-14T01:17:23;17.30;;;11.03;;
6095;SDS011;25081;42.698;23.298;2023-03-14T01:19:34;17.60;;;11.80;;
6095;SDS011;25081;42.698;23.298;2023-03-14T01:21:44;19.80;;;12.98;;
6095;SDS011;25081;42.698;23.298;2023-03-14T01:23:55;47.65;;;29.05;;
6095;SDS011;25081;42.698;23.298;2023-03-14T01:26:06;38.65;;;22.80;;
6095;SDS011;25081;42.698;23.298;2023-03-14T01:28:18;28.98;;;17.92;;
6095;SDS011;25081;42.698;23.298;2023-03-14T01:30:28;33.18;;;20.77;;
6095;SDS011;25081;42.698;23.298;2023-03-14T01:32:39;29.15;;;17.70;;
6095;SDS011;25081;42.698;23.298;2023-03-14T01:34:49;27.87;;;16.57;;
6095;SDS011;25081;42.698;23.298;2023-03-14T01:37:00;28.00;;;18.05;;
6095;SDS011;25081;42.698;23.298;2023-03-14T01:39:10;26.05;;;17.05;;
6095;SDS011;25081;42.698;23.298;2023-03-14T01:41:22;34.65;;;18.50;;
6095;SDS011;25081;42.698;23.298;2023-03-14T01:43:31;31.45;;;18.12;;
6095;SDS011;25081;42.698;23.298;2023-03-14T01:48:39;28.62;;;16.80;;
6095;SDS011;25081;42.698;23.298;2023-03-14T01:50:55;30.30;;;17.32;;
6095;SDS011;25081;42.698;23.298;2023-03-14T01:53:05;30.68;;;18.77;;
6095;SDS011;25081;42.698;23.298;2023-03-14T01:55:17;30.52;;;17.25;;
6095;SDS011;25081;42.698;23.298;2023-03-14T01:57:27;20.85;;;14.53;;
6095;SDS011;25081;42.698;23.298;2023-03-14T01:59:37;24.65;;;15.90;;
6095;SDS011;25081;42.698;23.298;2023-03-14T02:01:48;25.23;;;16.20;;
6095;SDS011;25081;42.698;23.298;2023-03-14T02:03:59;27.85;;;16.67;;
6095;SDS011;25081;42.698;23.298;2023-03-14T02:06:09;26.27;;;16.25;;
6095;SDS011;25081;42.698;23.298;2023-03-14T02:08:20;26.77;;;17.80;;
6095;SDS011;25081;42.698;23.298;2023-03-14T02:10:31;30.12;;;18.98;;
6095;SDS011;25081;42.698;23.298;2023-03-14T02:12:41;40.30;;;24.63;;
6095;SDS011;25081;42.698;23.298;2023-03-14T02:14:52;130.97;;;65.37;;
6095;SDS011;25081;42.698;23.298;2023-03-14T02:17:03;74.65;;;41.40;;
6095;SDS011;25081;42.698;23.298;2023-03-14T02:19:13;38.70;;;22.82;;
6095;SDS011;25081;42.698;23.298;2023-03-14T02:21:25;41.63;;;22.87;;
6095;SDS011;25081;42.698;23.298;2023-03-14T02:23:36;30.75;;;17.77;;
6095;SDS011;25081;42.698;23.298;2023-03-14T02:25:47;32.45;;;18.57;;
6095;SDS011;25081;42.698;23.298;2023-03-14T02:27:58;30.20;;;18.07;;
6095;SDS011;25081;42.698;23.298;2023-03-14T02:30:10;25.23;;;17.67;;
6095;SDS011;25081;42.698;23.298;2023-03-14T02:32:20;38.40;;;22.48;;
6095;SDS011;25081;42.698;23.298;2023-03-14T02:34:31;27.80;;;18.20;;
6095;SDS011;25081;42.698;23.298;2023-03-14T02:36:41;26.17;;;17.45;;
6095;SDS011;25081;42.698;23.298;2023-03-14T02:38:53;32.30;;;18.75;;
6095;SDS011;25081;42.698;23.298;2023-03-14T02:41:03;22.77;;;16.35;;
6095;SDS011;25081;42.698;23.298;2023-03-14T02:43:14;28.00;;;17.90;;
6095;SDS011;25081;42.698;23.298;2023-03-14T02:45:36;26.02;;;16.23;;
6095;SDS011;25081;42.698;23.298;2023-03-14T02:47:47;28.12;;;16.52;;
6095;SDS011;25081;42.698;23.298;2023-03-14T02:49:59;28.02;;;17.75;;
6095;SDS011;25081;42.698;23.298;2023-03-14T02:52:09;28.90;;;17.60;;
6095;SDS011;25081;42.698;23.298;2023-03-14T02:54:20;37.08;;;17.40;;
6095;SDS011;25081;42.698;23.298;2023-03-14T02:56:30;34.35;;;18.70;;
6095;SDS011;25081;42.698;23.298;2023-03-14T02:58:41;35.25;;;18.77;;
6095;SDS011;25081;42.698;23.298;2023-03-14T03:00:52;26.82;;;17.60;;
6095;SDS011;25081;42.698;23.298;2023-03-14T03:03:02;35.28;;;18.10;;
6095;SDS011;25081;42.698;23.298;2023-03-14T03:05:14;29.98;;;17.85;;
6095;SDS011;25081;42.698;23.298;2023-03-14T03:07:25;37.55;;;18.87;;
6095;SDS011;25081;42.698;23.298;2023-03-14T03:09:35;37.75;;;19.27;;
6095;SDS011;25081;42.698;23.298;2023-03-14T03:11:46;27.80;;;16.73;;
6095;SDS011;25081;42.698;23.298;2023-03-14T03:13:56;33.45;;;19.15;;
6095;SDS011;25081;42.698;23.298;2023-03-14T03:16:08;33.53;;;19.80;;
6095;SDS011;25081;42.698;23.298;2023-03-14T03:18:18;33.25;;;18.02;;
6095;SDS011;25081;42.698;23.298;2023-03-14T03:20:29;31.42;;;17.65;;
6095;SDS011;25081;42.698;23.298;2023-03-14T03:22:39;25.55;;;15.63;;
6095;SDS011;25081;42.698;23.298;2023-03-14T03:24:50;30.65;;;16.45;;
6095;SDS011;25081;42.698;23.298;2023-03-14T03:27:01;20.52;;;14.55;;
6095;SDS011;25081;42.698;23.298;2023-03-14T03:29:11;24.72;;;14.45;;
6095;SDS011;25081;42.698;23.298;2023-03-14T03:31:22;23.47;;;14.43;;
6095;SDS011;25081;42.698;23.298;2023-03-14T03:33:32;27.20;;;15.25;;
6095;SDS011;25081;42.698;23.298;2023-03-14T03:35:44;20.65;;;14.35;;
6095;SDS011;25081;42.698;23.298;2023-03-14T03:37:55;24.18;;;14.93;;
6095;SDS011;25081;42.698;23.298;2023-03-14T03:40:06;25.20;;;15.18;;
6095;SDS011;25081;42.698;23.298;2023-03-14T03:42:17;25.72;;;15.68;;
6095;SDS011;25081;42.698;23.298;2023-03-14T03:44:28;20.15;;;13.90;;
6095;SDS011;25081;42.698;23.298;2023-03-14T03:46:39;25.97;;;15.83;;
6095;SDS011;25081;42.698;23.298;2023-03-14T03:48:49;24.80;;;15.63;;
6095;SDS011;25081;42.698;23.298;2023-03-14T03:51:04;28.50;;;15.50;;
6095;SDS011;25081;42.698;23.298;2023-03-14T03:53:15;26.55;;;15.70;;
6095;SDS011;25081;42.698;23.298;2023-03-14T03:55:26;27.10;;;16.27;;
6095;SDS011;25081;42.698;23.298;2023-03-14T03:57:36;26.93;;;16.70;;
6095;SDS011;25081;42.698;23.298;2023-03-14T03:59:47;23.20;;;15.35;;
6095;SDS011;25081;42.698;23.298;2023-03-14T04:01:57;27.25;;;15.78;;
6095;SDS011;25081;42.698;23.298;2023-03-14T04:04:08;26.55;;;15.20;;
6095;SDS011;25081;42.698;23.298;2023-03-14T04:06:19;26.00;;;15.63;;
6095;SDS011;25081;42.698;23.298;2023-03-14T04:08:29;31.68;;;15.98;;
6095;SDS011;25081;42.698;23.298;2023-03-14T04:10:40;27.67;;;15.50;;
6095;SDS011;25081;42.698;23.298;2023-03-14T04:12:50;28.73;;;14.95;;
6095;SDS011;25081;42.698;23.298;2023-03-14T04:15:01;26.70;;;17.20;;
6095;SDS011;25081;42.698;23.298;2023-03-14T04:17:11;29.77;;;18.17;;
6095;SDS011;25081;42.698;23.298;2023-03-14T04:19:22;31.73;;;16.40;;
6095;SDS011;25081;42.698;23.298;2023-03-14T04:21:33;28.32;;;18.32;;
6095;SDS011;25081;42.698;23.298;2023-03-14T04:23:44;26.57;;;18.35;;
6095;SDS011;25081;42.698;23.298;2023-03-14T04:25:54;28.42;;;18.55;;
6095;SDS011;25081;42.698;23.298;2023-03-14T04:28:05;29.72;;;18.67;;
6095;SDS011;25081;42.698;23.298;2023-03-14T04:30:15;33.80;;;20.08;;
6095;SDS011;25081;42.698;23.298;2023-03-14T04:32:26;56.25;;;30.95;;
6095;SDS011;25081;42.698;23.298;2023-03-14T04:34:37;42.08;;;22.70;;
6095;SDS011;25081;42.698;23.298;2023-03-14T04:36:47;34.78;;;19.67;;
6095;SDS011;25081;42.698;23.298;2023-03-14T04:38:58;34.70;;;20.05;;
6095;SDS011;25081;42.698;23.298;2023-03-14T04:41:08;40.70;;;20.75;;
6095;SDS011;25081;42.698;23.298;2023-03-14T04:43:19;32.25;;;19.07;;
6095;SDS011;25081;42.698;23.298;2023-03-14T04:45:29;35.68;;;19.57;;
6095;SDS011;25081;42.698;23.298;2023-03-14T04:47:40;34.13;;;19.00;;
6095;SDS011;25081;42.698;23.298;2023-03-14T04:49:50;32.85;;;19.20;;
6095;SDS011;25081;42.698;23.298;2023-03-14T04:52:01;35.88;;;20.25;;
6095;SDS011;25081;42.698;23.298;2023-03-14T04:54:12;40.35;;;21.00;;
6095;SDS011;25081;42.698;23.298;2023-03-14T04:56:22;49.98;;;24.47;;
6095;SDS011;25081;42.698;23.298;2023-03-14T04:58:33;57.60;;;26.12;;
6095;SDS011;25081;42.698;23.298;2023-03-14T05:00:43;62.98;;;25.60;;
6095;SDS011;25081;42.698;23.298;2023-03-14T05:02:54;50.17;;;24.90;;
6095;SDS011;25081;42.698;23.298;2023-03-14T05:05:05;41.40;;;22.17;;
6095;SDS011;25081;42.698;23.298;2023-03-14T05:07:16;52.78;;;25.00;;
6095;SDS011;25081;42.698;23.298;2023-03-14T05:09:27;49.35;;;23.95;;
6095;SDS011;25081;42.698;23.298;2023-03-14T05:11:38;51.37;;;23.18;;
6095;SDS011;25081;42.698;23.298;2023-03-14T05:13:48;52.40;;;25.65;;
6095;SDS011;25081;42.698;23.298;2023-03-14T05:16:04;47.88;;;24.90;;
6095;SDS011;25081;42.698;23.298;2023-03-14T05:18:15;44.65;;;21.15;;
6095;SDS011;25081;42.698;23.298;2023-03-14T05:20:26;36.63;;;17.85;;
6095;SDS011;25081;42.698;23.298;2023-03-14T05:22:36;36.28;;;17.25;;
6095;SDS011;25081;42.698;23.298;2023-03-14T05:24:47;24.05;;;16.00;;
6095;SDS011;25081;42.698;23.298;2023-03-14T05:26:57;32.53;;;18.25;;
6095;SDS011;25081;42.698;23.298;2023-03-14T05:29:08;26.82;;;17.25;;
6095;SDS011;25081;42.698;23.298;2023-03-14T05:31:18;31.90;;;17.30;;
6095;SDS011;25081;42.698;23.298;2023-03-14T05:33:29;30.95;;;18.27;;
6095;SDS011;25081;42.698;23.298;2023-03-14T05:35:39;40.78;;;18.75;;
6095;SDS011;25081;42.698;23.298;2023-03-14T05:37:50;36.23;;;16.32;;
6095;SDS011;25081;42.698;23.298;2023-03-14T05:40:00;32.23;;;14.70;;
6095;SDS011;25081;42.698;23.298;2023-03-14T05:42:12;27.00;;;15.25;;
6095;SDS011;25081;42.698;23.298;2023-03-14T05:44:22;21.95;;;14.90;;
6095;SDS011;25081;42.698;23.298;2023-03-14T05:46:33;34.25;;;15.32;;
6095;SDS011;25081;42.698;23.298;2023-03-14T05:48:43;22.58;;;12.78;;
6095;SDS011;25081;42.698;23.298;2023-03-14T05:50:57;19.48;;;12.70;;
6095;SDS011;25081;42.698;23.298;2023-03-14T05:53:08;32.42;;;14.07;;
6095;SDS011;25081;42.698;23.298;2023-03-14T05:55:19;25.55;;;14.63;;
6095;SDS011;25081;42.698;23.298;2023-03-14T05:57:29;18.60;;;13.30;;
6095;SDS011;25081;42.698;23.298;2023-03-14T05:59:39;27.20;;;13.50;;
6095;SDS011;25081;42.698;23.298;2023-03-14T06:01:50;21.25;;;12.90;;
6095;SDS011;25081;42.698;23.298;2023-03-14T06:04:00;21.80;;;13.95;;
6095;SDS011;25081;42.698;23.298;2023-03-14T06:06:11;23.62;;;12.47;;
6095;SDS011;25081;42.698;23.298;2023-03-14T06:08:21;23.73;;;12.50;;
6095;SDS011;25081;42.698;23.298;2023-03-14T06:10:32;22.37;;;12.05;;
6095;SDS011;25081;42.698;23.298;2023-03-14T06:12:42;17.95;;;13.03;;
6095;SDS011;25081;42.698;23.298;2023-03-14T06:14:53;21.57;;;13.00;;
6095;SDS011;25081;42.698;23.298;2023-03-14T06:17:03;18.55;;;12.43;;
6095;SDS011;25081;42.698;23.298;2023-03-14T06:19:14;25.20;;;12.60;;
6095;SDS011;25081;42.698;23.298;2023-03-14T06:21:25;28.65;;;14.40;;
6095;SDS011;25081;42.698;23.298;2023-03-14T06:23:35;21.73;;;13.75;;
6095;SDS011;25081;42.698;23.298;2023-03-14T06:25:46;28.80;;;15.80;;
6095;SDS011;25081;42.698;23.298;2023-03-14T06:27:56;23.07;;;13.72;;
6095;SDS011;25081;42.698;23.298;2023-03-14T06:30:08;22.27;;;14.58;;
6095;SDS011;25081;42.698;23.298;2023-03-14T06:32:19;27.17;;;14.80;;
6095;SDS011;25081;42.698;23.298;2023-03-14T06:34:30;24.57;;;13.98;;
6095;SDS011;25081;42.698;23.298;2023-03-14T06:36:40;22.55;;;14.65;;
6095;SDS011;25081;42.698;23.298;2023-03-14T06:38:51;25.85;;;15.30;;
6095;SDS011;25081;42.698;23.298;2023-03-14T06:41:04;27.42;;;15.95;;
6095;SDS011;25081;42.698;23.298;2023-03-14T06:43:15;26.20;;;15.00;;
6095;SDS011;25081;42.698;23.298;2023-03-14T06:45:25;26.02;;;16.55;;
6095;SDS011;25081;42.698;23.298;2023-03-14T06:47:36;21.12;;;15.20;;
6095;SDS011;25081;42.698;23.298;2023-03-14T06:49:47;52.65;;;30.77;;
6095;SDS011;25081;42.698;23.298;2023-03-14T06:51:57;26.97;;;16.30;;
6095;SDS011;25081;42.698;23.298;2023-03-14T06:54:08;29.12;;;16.25;;
6095;SDS011;25081;42.698;23.298;2023-03-14T06:56:18;30.50;;;17.90;;
6095;SDS011;25081;42.698;23.298;2023-03-14T06:58:28;27.30;;;16.73;;
6095;SDS011;25081;42.698;23.298;2023-03-14T07:00:39;36.98;;;18.75;;
6095;SDS011;25081;42.698;23.298;2023-03-14T07:02:49;27.10;;;18.52;;
6095;SDS011;25081;42.698;23.298;2023-03-14T07:05:00;33.67;;;16.32;;
6095;SDS011;25081;42.698;23.298;2023-03-14T07:07:11;26.80;;;18.23;;
6095;SDS011;25081;42.698;23.298;2023-03-14T07:09:21;25.25;;;18.32;;
6095;SDS011;25081;42.698;23.298;2023-03-14T07:11:31;30.85;;;18.12;;
6095;SDS011;25081;42.698;23.298;2023-03-14T07:13:42;32.33;;;17.42;;
6095;SDS011;25081;42.698;23.298;2023-03-14T07:15:52;29.33;;;18.93;;
6095;SDS011;25081;42.698;23.298;2023-03-14T07:18:03;31.40;;;18.80;;
6095;SDS011;25081;42.698;23.298;2023-03-14T07:20:14;26.83;;;17.07;;
6095;SDS011;25081;42.698;23.298;2023-03-14T07:22:25;30.73;;;19.47;;
6095;SDS011;25081;42.698;23.298;2023-03-14T07:24:36;29.67;;;19.20;;
6095;SDS011;25081;42.698;23.298;2023-03-14T07:26:46;22.80;;;17.50;;
6095;SDS011;25081;42.698;23.298;2023-03-14T07:28:57;24.37;;;18.70;;
6095;SDS011;25081;42.698;23.298;2023-03-14T07:31:07;22.87;;;18.17;;
6095;SDS011;25081;42.698;23.298;2023-03-14T07:33:18;26.53;;;17.03;;
6095;SDS011;25081;42.698;23.298;2023-03-14T07:35:28;35.50;;;19.43;;
6095;SDS011;25081;42.698;23.298;2023-03-14T07:37:38;24.10;;;18.23;;
6095;SDS011;25081;42.698;23.298;2023-03-14T07:39:49;21.43;;;16.10;;
6095;SDS011;25081;42.698;23.298;2023-03-14T07:42:00;26.00;;;17.30;;
6095;SDS011;25081;42.698;23.298;2023-03-14T07:44:10;26.40;;;18.60;;
6095;SDS011;25081;42.698;23.298;2023-03-14T07:46:21;29.50;;;19.27;;
6095;SDS011;25081;42.698;23.298;2023-03-14T07:48:31;25.73;;;18.30;;
6095;SDS011;25081;42.698;23.298;2023-03-14T07:50:42;26.87;;;18.57;;
6095;SDS011;25081;42.698;23.298;2023-03-14T07:52:53;26.70;;;20.13;;
6095;SDS011;25081;42.698;23.298;2023-03-14T07:55:03;25.30;;;18.27;;
6095;SDS011;25081;42.698;23.298;2023-03-14T07:57:15;27.23;;;19.23;;
6095;SDS011;25081;42.698;23.298;2023-03-14T07:59:26;27.43;;;19.40;;
6095;SDS011;25081;42.698;23.298;2023-03-14T08:01:36;25.13;;;17.57;;
6095;SDS011;25081;42.698;23.298;2023-03-14T08:03:46;23.57;;;17.87;;
6095;SDS011;25081;42.698;23.298;2023-03-14T08:05:57;28.87;;;18.33;;
6095;SDS011;25081;42.698;23.298;2023-03-14T08:08:08;26.97;;;16.33;;
6095;SDS011;25081;42.698;23.298;2023-03-14T08:10:18;22.87;;;17.63;;
6095;SDS011;25081;42.698;23.298;2023-03-14T08:12:31;26.33;;;17.37;;
6095;SDS011;25081;42.698;23.298;2023-03-14T08:14:42;24.47;;;17.80;;
6095;SDS011;25081;42.698;23.298;2023-03-14T08:16:53;32.03;;;18.83;;
6095;SDS011;25081;42.698;23.298;2023-03-14T08:19:03;21.90;;;17.00;;
6095;SDS011;25081;42.698;23.298;2023-03-14T08:21:14;22.73;;;16.97;;
6095;SDS011;25081;42.698;23.298;2023-03-14T08:23:24;25.30;;;16.17;;
6095;SDS011;25081;42.698;23.298;2023-03-14T08:25:35;25.13;;;15.97;;
6095;SDS011;25081;42.698;23.298;2023-03-14T08:27:45;17.50;;;13.23;;
6095;SDS011;25081;42.698;23.298;2023-03-14T08:29:56;24.20;;;15.10;;
6095;SDS011;25081;42.698;23.298;2023-03-14T08:32:08;23.17;;;13.63;;
6095;SDS011;25081;42.698;23.298;2023-03-14T08:34:18;17.10;;;11.97;;
6095;SDS011;25081;42.698;23.298;2023-03-14T08:36:29;16.53;;;12.47;;
6095;SDS011;25081;42.698;23.298;2023-03-14T08:38:40;13.90;;;12.23;;
6095;SDS011;25081;42.698;23.298;2023-03-14T08:40:54;18.70;;;12.37;;
6095;SDS011;25081;42.698;23.298;2023-03-14T08:43:06;16.30;;;12.93;;
6095;SDS011;25081;42.698;23.298;2023-03-14T08:45:17;18.33;;;12.87;;
6095;SDS011;25081;42.698;23.298;2023-03-14T08:47:27;15.13;;;11.73;;
6095;SDS011;25081;42.698;23.298;2023-03-14T08:49:38;18.00;;;10.80;;
6095;SDS011;25081;42.698;23.298;2023-03-14T08:51:49;12.23;;;10.47;;
6095;SDS011;25081;42.698;23.298;2023-03-14T08:53:59;15.00;;;9.50;;
6095;SDS011;25081;42.698;23.298;2023-03-14T08:56:10;13.73;;;9.77;;
6095;SDS011;25081;42.698;23.298;2023-03-14T08:58:20;13.00;;;9.93;;
6095;SDS011;25081;42.698;23.298;2023-03-14T09:00:31;12.90;;;10.00;;
6095;SDS011;25081;42.698;23.298;2023-03-14T09:02:42;13.40;;;10.27;;
6095;SDS011;25081;42.698;23.298;2023-03-14T09:04:53;13.60;;;9.70;;
6095;SDS011;25081;42.698;23.298;2023-03-14T09:07:03;15.40;;;10.20;;
6095;SDS011;25081;42.698;23.298;2023-03-14T09:09:14;14.23;;;10.10;;
6095;SDS011;25081;42.698;23.298;2023-03-14T09:11:24;15.13;;;10.10;;
6095;SDS011;25081;42.698;23.298;2023-03-14T09:13:34;13.80;;;10.13;;
6095;SDS011;25081;42.698;23.298;2023-03-14T09:15:45;12.77;;;9.87;;
6095;SDS011;25081;42.698;23.298;2023-03-14T09:17:59;11.87;;;9.73;;
6095;SDS011;25081;42.698;23.298;2023-03-14T09:20:11;9.43;;;8.43;;
6095;SDS011;25081;42.698;23.298;2023-03-14T09:22:22;12.30;;;8.70;;
6095;SDS011;25081;42.698;23.298;2023-03-14T09:24:32;11.43;;;9.37;;
6095;SDS011;25081;42.698;23.298;2023-03-14T09:26:43;14.73;;;9.60;;
6095;SDS011;25081;42.698;23.298;2023-03-14T09:28:53;14.50;;;10.30;;
6095;SDS011;25081;42.698;23.298;2023-03-14T09:31:08;15.63;;;9.77;;
6095;SDS011;25081;42.698;23.298;2023-03-14T09:33:18;13.20;;;10.10;;
6095;SDS011;25081;42.698;23.298;2023-03-14T09:35:29;11.00;;;8.10;;
6095;SDS011;25081;42.698;23.298;2023-03-14T09:37:39;14.77;;;12.57;;
6095;SDS011;25081;42.698;23.298;2023-03-14T09:39:50;10.03;;;7.80;;
6095;SDS011;25081;42.698;23.298;2023-03-14T09:42:02;11.07;;;7.80;;
6095;SDS011;25081;42.698;23.298;2023-03-14T09:44:13;9.90;;;8.90;;
6095;SDS011;25081;42.698;23.298;2023-03-14T09:46:23;14.87;;;9.70;;
6095;SDS011;25081;42.698;23.298;2023-03-14T09:48:34;12.00;;;9.53;;
6095;SDS011;25081;42.698;23.298;2023-03-14T09:50:45;13.03;;;8.53;;
6095;SDS011;25081;42.698;23.298;2023-03-14T09:52:56;12.10;;;8.77;;
6095;SDS011;25081;42.698;23.298;2023-03-14T09:55:09;11.47;;;9.10;;
6095;SDS011;25081;42.698;23.298;2023-03-14T09:57:21;12.90;;;9.57;;
6095;SDS011;25081;42.698;23.298;2023-03-14T09:59:31;10.90;;;7.33;;
6095;SDS011;25081;42.698;23.298;2023-03-14T10:01:41;9.07;;;7.93;;
6095;SDS011;25081;42.698;23.298;2023-03-14T10:03:53;15.33;;;9.53;;
6095;SDS011;25081;42.698;23.298;2023-03-14T10:06:10;12.27;;;9.30;;
6095;SDS011;25081;42.698;23.298;2023-03-14T10:08:21;12.83;;;9.33;;
6095;SDS011;25081;42.698;23.298;2023-03-14T10:10:32;12.80;;;8.97;;
6095;SDS011;25081;42.698;23.298;2023-03-14T10:12:44;12.00;;;7.20;;
6095;SDS011;25081;42.698;23.298;2023-03-14T10:14:53;11.20;;;7.60;;
6095;SDS011;25081;42.698;23.298;2023-03-14T10:17:07;10.17;;;6.77;;
6095;SDS011;25081;42.698;23.298;2023-03-14T10:19:18;9.20;;;7.30;;
6095;SDS011;25081;42.698;23.298;2023-03-14T10:21:29;15.33;;;8.17;;
6095;SDS011;25081;42.698;23.298;2023-03-14T10:23:39;11.40;;;6.90;;
6095;SDS011;25081;42.698;23.298;2023-03-14T10:25:59;10.40;;;5.40;;
6095;SDS011;25081;42.698;23.298;2023-03-14T10:28:18;9.10;;;5.47;;
6095;SDS011;25081;42.698;23.298;2023-03-14T10:30:29;6.37;;;5.10;;
6095;SDS011;25081;42.698;23.298;2023-03-14T10:32:48;9.23;;;5.90;;
6095;SDS011;25081;42.698;23.298;2023-03-14T10:35:19;6.80;;;5.40;;
6095;SDS011;25081;42.698;23.298;2023-03-14T10:37:31;10.30;;;7.10;;
6095;SDS011;25081;42.698;23.298;2023-03-14T10:39:44;11.50;;;8.07;;
6095;SDS011;25081;42.698;23.298;2023-03-14T10:41:53;14.17;;;9.37;;
6095;SDS011;25081;42.698;23.298;2023-03-14T10:44:03;19.93;;;8.07;;
6095;SDS011;25081;42.698;23.298;2023-03-14T10:46:15;14.37;;;9.50;;
6095;SDS011;25081;42.698;23.298;2023-03-14T10:48:29;15.30;;;9.03;;
6095;SDS011;25081;42.698;23.298;2023-03-14T10:50:40;18.03;;;8.77;;
6095;SDS011;25081;42.698;23.298;2023-03-14T10:52:53;14.33;;;8.47;;
6095;SDS011;25081;42.698;23.298;2023-03-14T10:55:08;18.30;;;9.23;;
6095;SDS011;25081;42.698;23.298;2023-03-14T10:57:15;13.97;;;9.27;;
6095;SDS011;25081;42.698;23.298;2023-03-14T10:59:25;12.63;;;8.70;;
6095;SDS011;25081;42.698;23.298;2023-03-14T11:01:41;12.30;;;7.43;;
6095;SDS011;25081;42.698;23.298;2023-03-14T11:03:53;12.47;;;8.40;;
6095;SDS011;25081;42.698;23.298;2023-03-14T11:06:04;12.20;;;7.63;;
6095;SDS011;25081;42.698;23.298;2023-03-14T11:08:17;11.80;;;7.53;;
6095;SDS011;25081;42.698;23.298;2023-03-14T11:10:31;10.70;;;6.77;;
6095;SDS011;25081;42.698;23.298;2023-03-14T11:12:44;16.43;;;8.20;;
6095;SDS011;25081;42.698;23.298;2023-03-14T11:14:55;9.50;;;6.80;;
6095;SDS011;25081;42.698;23.298;2023-03-14T11:17:07;8.60;;;6.03;;
6095;SDS011;25081;42.698;23.298;2023-03-14T11:19:21;11.20;;;6.70;;
6095;SDS011;25081;42.698;23.298;2023-03-14T11:21:52;10.70;;;5.90;;
6095;SDS011;25081;42.698;23.298;2023-03-14T11:24:08;7.13;;;5.87;;
6095;SDS011;25081;42.698;23.298;2023-03-14T11:26:27;8.33;;;5.70;;
6095;SDS011;25081;42.698;23.298;2023-03-14T11:28:38;8.97;;;6.03;;
6095;SDS011;25081;42.698;23.298;2023-03-14T11:30:50;9.10;;;5.53;;
6095;SDS011;25081;42.698;23.298;2023-03-14T11:33:02;5.23;;;4.17;;
6095;SDS011;25081;42.698;23.298;2023-03-14T11:35:17;8.77;;;5.30;;
6095;SDS011;25081;42.698;23.298;2023-03-14T11:37:28;10.87;;;5.87;;
6095;SDS011;25081;42.698;23.298;2023-03-14T11:39:39;6.50;;;5.17;;
6095;SDS011;25081;42.698;23.298;2023-03-14T11:41:50;7.17;;;5.13;;
6095;SDS011;25081;42.698;23.298;2023-03-14T11:44:01;6.33;;;5.13;;
6095;SDS011;25081;42.698;23.298;2023-03-14T11:46:13;5.83;;;4.33;;
6095;SDS011;25081;42.698;23.298;2023-03-14T11:48:24;6.00;;;5.10;;
6095;SDS011;25081;42.698;23.298;2023-03-14T11:50:35;6.33;;;4.67;;
6095;SDS011;25081;42.698;23.298;2023-03-14T11:52:47;8.03;;;5.30;;
6095;SDS011;25081;42.698;23.298;2023-03-14T11:54:58;6.47;;;5.33;;
6095;SDS011;25081;42.698;23.298;2023-03-14T11:57:10;10.60;;;5.17;;
6095;SDS011;25081;42.698;23.298;2023-03-14T11:59:22;9.20;;;5.07;;
6095;SDS011;25081;42.698;23.298;2023-03-14T12:01:36;9.03;;;4.40;;
6095;SDS011;25081;42.698;23.298;2023-03-14T12:03:51;7.97;;;4.70;;
6095;SDS011;25081;42.698;23.298;2023-03-14T12:06:04;5.47;;;4.43;;
6095;SDS011;25081;42.698;23.298;2023-03-14T12:11:02;11.10;;;4.37;;
6095;SDS011;25081;42.698;23.298;2023-03-14T12:13:14;14.63;;;5.30;;
6095;SDS011;25081;42.698;23.298;2023-03-14T12:15:24;5.53;;;4.30;;
6095;SDS011;25081;42.698;23.298;2023-03-14T12:17:35;7.10;;;3.43;;
6095;SDS011;25081;42.698;23.298;2023-03-14T12:19:45;6.30;;;3.70;;
6095;SDS011;25081;42.698;23.298;2023-03-14T12:21:57;7.50;;;4.07;;
6095;SDS011;25081;42.698;23.298;2023-03-14T12:24:14;6.70;;;4.60;;
6095;SDS011;25081;42.698;23.298;2023-03-14T12:26:20;8.10;;;4.43;;
6095;SDS011;25081;42.698;23.298;2023-03-14T12:28:31;6.00;;;3.60;;
6095;SDS011;25081;42.698;23.298;2023-03-14T12:30:41;4.10;;;2.40;;
6095;SDS011;25081;42.698;23.298;2023-03-14T12:35:42;8.50;;;4.10;;
6095;SDS011;25081;42.698;23.298;2023-03-14T12:37:52;4.97;;;3.50;;
6095;SDS011;25081;42.698;23.298;2023-03-14T12:40:10;6.20;;;4.00;;
6095;SDS011;25081;42.698;23.298;2023-03-14T12:42:35;5.67;;;3.43;;
6095;SDS011;25081;42.698;23.298;2023-03-14T12:44:46;4.27;;;3.60;;
6095;SDS011;25081;42.698;23.298;2023-03-14T12:46:57;3.90;;;3.30;;
6095;SDS011;25081;42.698;23.298;2023-03-14T12:49:08;6.20;;;3.57;;
6095;SDS011;25081;42.698;23.298;2023-03-14T12:51:18;5.27;;;3.07;;
6095;SDS011;25081;42.698;23.298;2023-03-14T12:56:22;6.83;;;3.57;;
6095;SDS011;25081;42.698;23.298;2023-03-14T12:58:37;4.63;;;3.30;;
6095;SDS011;25081;42.698;23.298;2023-03-14T13:00:47;3.70;;;2.77;;
6095;SDS011;25081;42.698;23.298;2023-03-14T13:03:02;6.43;;;3.17;;
6095;SDS011;25081;42.698;23.298;2023-03-14T13:05:12;5.57;;;2.90;;